sensor_id;sensor_type;location;lat;lon;timestamp;temperature;humidity
37910;DHT22;23741;49.446;8.754;2023-07-29T00:01:48;22.10;79.10
37910;DHT22;23741;49.446;8.754;2023-07-29T00:03:51;22.10;79.20
37910;DHT22;23741;49.446;8.754;2023-07-29T00:05:52;22.10;79.20
37910;DHT22;23741;49.446;8.754;2023-07-29T00:07:54;22.10;79.20
37910;DHT22;23741;49.446;8.754;2023-07-29T00:09:56;22.10;79.30
37910;DHT22;23741;49.446;8.754;2023-07-29T00:11:58;22.10;79.20
37910;DHT22;23741;49.446;8.754;2023-07-29T00:14:00;22.10;79.20
37910;DHT22;23741;49.446;8.754;2023-07-29T00:16:02;22.10;79.20
37910;DHT22;23741;49.446;8.754;2023-07-29T00:18:04;22.10;79.20
37910;DHT22;23741;49.446;8.754;2023-07-29T00:20:07;22.10;79.20
37910;DHT22;23741;49.446;8.754;2023-07-29T00:22:10;22.00;79.20
37910;DHT22;23741;49.446;8.754;2023-07-29T00:24:11;22.00;79.10
37910;DHT22;23741;49.446;8.754;2023-07-29T00:26:13;22.10;79.10
37910;DHT22;23741;49.446;8.754;2023-07-29T00:28:15;22.10;79.30
37910;DHT22;23741;49.446;8.754;2023-07-29T00:30:19;22.10;79.30
37910;DHT22;23741;49.446;8.754;2023-07-29T00:32:21;22.10;79.20
37910;DHT22;23741;49.446;8.754;2023-07-29T00:34:22;22.10;79.20
37910;DHT22;23741;49.446;8.754;2023-07-29T00:36:24;22.10;79.20
37910;DHT22;23741;49.446;8.754;2023-07-29T00:38:26;22.10;79.20
37910;DHT22;23741;49.446;8.754;2023-07-29T00:40:29;22.10;79.20
37910;DHT22;23741;49.446;8.754;2023-07-29T00:42:31;22.10;79.20
37910;DHT22;23741;49.446;8.754;2023-07-29T00:44:33;22.10;79.20
37910;DHT22;23741;49.446;8.754;2023-07-29T00:46:36;22.10;79.20
37910;DHT22;23741;49.446;8.754;2023-07-29T00:48:39;22.10;79.20
37910;DHT22;23741;49.446;8.754;2023-07-29T00:50:42;22.10;79.20
37910;DHT22;23741;49.446;8.754;2023-07-29T00:52:44;22.10;79.10
37910;DHT22;23741;49.446;8.754;2023-07-29T00:54:46;22.10;79.10
37910;DHT22;23741;49.446;8.754;2023-07-29T00:56:48;22.10;79.10
37910;DHT22;23741;49.446;8.754;2023-07-29T00:58:50;22.10;79.10
37910;DHT22;23741;49.446;8.754;2023-07-29T01:00:53;22.10;79.00
37910;DHT22;23741;49.446;8.754;2023-07-29T01:02:56;22.10;79.00
37910;DHT22;23741;49.446;8.754;2023-07-29T01:04:59;22.10;79.00
37910;DHT22;23741;49.446;8.754;2023-07-29T01:09:24;22.10;78.90
37910;DHT22;23741;49.446;8.754;2023-07-29T01:12:04;22.10;79.00
37910;DHT22;23741;49.446;8.754;2023-07-29T01:14:27;22.10;78.90
37910;DHT22;23741;49.446;8.754;2023-07-29T01:16:42;22.10;78.80
37910;DHT22;23741;49.446;8.754;2023-07-29T01:18:47;22.10;79.60
37910;DHT22;23741;49.446;8.754;2023-07-29T01:20:59;22.00;78.70
37910;DHT22;23741;49.446;8.754;2023-07-29T01:23:01;22.00;78.80
37910;DHT22;23741;49.446;8.754;2023-07-29T01:25:04;22.00;78.70
37910;DHT22;23741;49.446;8.754;2023-07-29T01:27:05;22.00;78.70
37910;DHT22;23741;49.446;8.754;2023-07-29T01:29:07;22.00;78.80
37910;DHT22;23741;49.446;8.754;2023-07-29T01:31:27;22.00;78.80
37910;DHT22;23741;49.446;8.754;2023-07-29T01:33:39;22.00;79.00
37910;DHT22;23741;49.446;8.754;2023-07-29T01:36:07;22.00;78.80
37910;DHT22;23741;49.446;8.754;2023-07-29T01:38:21;22.00;79.00
37910;DHT22;23741;49.446;8.754;2023-07-29T01:40:27;22.00;79.00
37910;DHT22;23741;49.446;8.754;2023-07-29T01:42:31;22.00;78.90
37910;DHT22;23741;49.446;8.754;2023-07-29T01:44:33;22.00;79.00
37910;DHT22;23741;49.446;8.754;2023-07-29T01:46:37;22.00;79.00
37910;DHT22;23741;49.446;8.754;2023-07-29T01:48:41;22.00;79.00
37910;DHT22;23741;49.446;8.754;2023-07-29T01:50:43;22.00;79.00
37910;DHT22;23741;49.446;8.754;2023-07-29T01:52:45;22.00;79.10
37910;DHT22;23741;49.446;8.754;2023-07-29T01:54:47;22.00;79.10
37910;DHT22;23741;49.446;8.754;2023-07-29T01:56:49;22.00;79.20
37910;DHT22;23741;49.446;8.754;2023-07-29T01:58:52;22.00;79.10
37910;DHT22;23741;49.446;8.754;2023-07-29T02:00:54;22.00;79.20
37910;DHT22;23741;49.446;8.754;2023-07-29T02:02:56;22.00;79.20
37910;DHT22;23741;49.446;8.754;2023-07-29T02:04:58;22.00;79.20
37910;DHT22;23741;49.446;8.754;2023-07-29T02:07:00;22.00;79.10
37910;DHT22;23741;49.446;8.754;2023-07-29T02:09:02;21.90;79.00
37910;DHT22;23741;49.446;8.754;2023-07-29T02:11:06;22.00;79.00
37910;DHT22;23741;49.446;8.754;2023-07-29T02:13:08;22.00;79.00
37910;DHT22;23741;49.446;8.754;2023-07-29T02:15:10;22.00;79.00
37910;DHT22;23741;49.446;8.754;2023-07-29T02:17:12;21.90;79.70
37910;DHT22;23741;49.446;8.754;2023-07-29T02:19:13;21.90;78.90
37910;DHT22;23741;49.446;8.754;2023-07-29T02:21:16;21.90;79.00
37910;DHT22;23741;49.446;8.754;2023-07-29T02:23:18;21.90;79.00
37910;DHT22;23741;49.446;8.754;2023-07-29T02:25:20;21.90;78.90
37910;DHT22;23741;49.446;8.754;2023-07-29T02:27:22;21.90;79.00
37910;DHT22;23741;49.446;8.754;2023-07-29T02:29:24;22.00;79.00
37910;DHT22;23741;49.446;8.754;2023-07-29T02:31:26;21.90;78.90
37910;DHT22;23741;49.446;8.754;2023-07-29T02:33:28;21.90;78.90
37910;DHT22;23741;49.446;8.754;2023-07-29T02:35:30;22.00;79.00
37910;DHT22;23741;49.446;8.754;2023-07-29T02:37:32;21.90;78.90
37910;DHT22;23741;49.446;8.754;2023-07-29T02:39:34;21.90;78.90
37910;DHT22;23741;49.446;8.754;2023-07-29T02:41:36;21.90;78.90
37910;DHT22;23741;49.446;8.754;2023-07-29T02:43:38;21.90;78.90
37910;DHT22;23741;49.446;8.754;2023-07-29T02:45:41;21.90;78.90
37910;DHT22;23741;49.446;8.754;2023-07-29T02:47:43;21.90;79.00
37910;DHT22;23741;49.446;8.754;2023-07-29T02:49:44;21.90;79.00
37910;DHT22;23741;49.446;8.754;2023-07-29T02:51:46;21.90;79.00
37910;DHT22;23741;49.446;8.754;2023-07-29T02:53:48;21.90;79.00
37910;DHT22;23741;49.446;8.754;2023-07-29T02:55:50;21.90;79.00
37910;DHT22;23741;49.446;8.754;2023-07-29T02:57:54;21.90;79.00
37910;DHT22;23741;49.446;8.754;2023-07-29T02:59:56;21.90;79.00
37910;DHT22;23741;49.446;8.754;2023-07-29T03:01:58;21.90;79.00
37910;DHT22;23741;49.446;8.754;2023-07-29T03:03:59;21.90;79.00
37910;DHT22;23741;49.446;8.754;2023-07-29T03:06:05;21.90;79.00
37910;DHT22;23741;49.446;8.754;2023-07-29T03:08:07;21.90;79.10
37910;DHT22;23741;49.446;8.754;2023-07-29T03:10:09;21.90;79.00
37910;DHT22;23741;49.446;8.754;2023-07-29T03:12:12;21.90;79.10
37910;DHT22;23741;49.446;8.754;2023-07-29T03:14:14;21.90;79.00
37910;DHT22;23741;49.446;8.754;2023-07-29T03:16:17;21.80;79.00
37910;DHT22;23741;49.446;8.754;2023-07-29T03:18:27;21.90;79.10
37910;DHT22;23741;49.446;8.754;2023-07-29T03:20:32;21.90;79.00
37910;DHT22;23741;49.446;8.754;2023-07-29T03:22:40;21.80;79.00
37910;DHT22;23741;49.446;8.754;2023-07-29T03:24:42;21.90;79.00
37910;DHT22;23741;49.446;8.754;2023-07-29T03:26:44;21.90;79.00
37910;DHT22;23741;49.446;8.754;2023-07-29T03:28:48;21.90;78.90
37910;DHT22;23741;49.446;8.754;2023-07-29T03:30:49;21.80;78.90
37910;DHT22;23741;49.446;8.754;2023-07-29T03:32:52;21.90;79.00
37910;DHT22;23741;49.446;8.754;2023-07-29T03:34:54;21.80;78.80
37910;DHT22;23741;49.446;8.754;2023-07-29T03:36:56;21.80;78.70
37910;DHT22;23741;49.446;8.754;2023-07-29T03:38:58;21.80;78.80
37910;DHT22;23741;49.446;8.754;2023-07-29T03:41:00;21.80;78.70
37910;DHT22;23741;49.446;8.754;2023-07-29T03:43:04;21.80;78.70
37910;DHT22;23741;49.446;8.754;2023-07-29T03:45:06;21.80;78.70
37910;DHT22;23741;49.446;8.754;2023-07-29T03:47:08;21.80;79.50
37910;DHT22;23741;49.446;8.754;2023-07-29T03:49:10;21.80;78.70
37910;DHT22;23741;49.446;8.754;2023-07-29T03:51:12;21.80;78.80
37910;DHT22;23741;49.446;8.754;2023-07-29T03:53:14;21.80;78.70
37910;DHT22;23741;49.446;8.754;2023-07-29T03:55:17;21.80;78.80
37910;DHT22;23741;49.446;8.754;2023-07-29T03:57:18;21.80;78.80
37910;DHT22;23741;49.446;8.754;2023-07-29T03:59:20;21.80;78.80
37910;DHT22;23741;49.446;8.754;2023-07-29T04:01:24;21.80;78.80
37910;DHT22;23741;49.446;8.754;2023-07-29T04:03:26;21.80;78.90
37910;DHT22;23741;49.446;8.754;2023-07-29T04:05:29;21.70;78.80
37910;DHT22;23741;49.446;8.754;2023-07-29T04:07:31;21.70;78.80
37910;DHT22;23741;49.446;8.754;2023-07-29T04:09:33;21.70;78.80
37910;DHT22;23741;49.446;8.754;2023-07-29T04:11:35;21.70;78.80
37910;DHT22;23741;49.446;8.754;2023-07-29T04:13:36;21.70;79.00
37910;DHT22;23741;49.446;8.754;2023-07-29T04:15:39;21.70;79.00
37910;DHT22;23741;49.446;8.754;2023-07-29T04:17:41;21.70;79.00
37910;DHT22;23741;49.446;8.754;2023-07-29T04:19:44;21.70;78.90
37910;DHT22;23741;49.446;8.754;2023-07-29T04:21:45;21.70;79.00
37910;DHT22;23741;49.446;8.754;2023-07-29T04:23:48;21.70;78.90
37910;DHT22;23741;49.446;8.754;2023-07-29T04:25:50;21.70;79.00
37910;DHT22;23741;49.446;8.754;2023-07-29T04:27:51;21.70;79.00
37910;DHT22;23741;49.446;8.754;2023-07-29T04:29:53;21.80;79.10
37910;DHT22;23741;49.446;8.754;2023-07-29T04:31:55;21.80;79.10
37910;DHT22;23741;49.446;8.754;2023-07-29T04:33:57;21.80;79.10
37910;DHT22;23741;49.446;8.754;2023-07-29T04:35:59;21.70;79.10
37910;DHT22;23741;49.446;8.754;2023-07-29T04:38:01;21.70;79.10
37910;DHT22;23741;49.446;8.754;2023-07-29T04:40:03;21.70;79.20
37910;DHT22;23741;49.446;8.754;2023-07-29T04:42:05;21.70;79.30
37910;DHT22;23741;49.446;8.754;2023-07-29T04:44:07;21.70;79.30
37910;DHT22;23741;49.446;8.754;2023-07-29T04:46:09;21.70;79.30
37910;DHT22;23741;49.446;8.754;2023-07-29T04:48:11;21.80;79.40
37910;DHT22;23741;49.446;8.754;2023-07-29T04:50:13;21.70;79.30
37910;DHT22;23741;49.446;8.754;2023-07-29T04:52:15;21.70;79.40
37910;DHT22;23741;49.446;8.754;2023-07-29T04:54:16;21.70;79.50
37910;DHT22;23741;49.446;8.754;2023-07-29T04:56:18;21.70;79.50
37910;DHT22;23741;49.446;8.754;2023-07-29T04:58:20;21.80;79.50
37910;DHT22;23741;49.446;8.754;2023-07-29T05:00:22;21.80;79.50
37910;DHT22;23741;49.446;8.754;2023-07-29T05:02:24;21.70;79.50
37910;DHT22;23741;49.446;8.754;2023-07-29T05:04:28;21.80;79.50
37910;DHT22;23741;49.446;8.754;2023-07-29T05:06:31;21.80;79.80
37910;DHT22;23741;49.446;8.754;2023-07-29T05:08:33;21.80;79.70
37910;DHT22;23741;49.446;8.754;2023-07-29T05:10:34;21.80;79.80
37910;DHT22;23741;49.446;8.754;2023-07-29T05:12:36;21.80;79.70
37910;DHT22;23741;49.446;8.754;2023-07-29T05:14:38;21.80;79.80
37910;DHT22;23741;49.446;8.754;2023-07-29T05:16:40;21.80;79.80
37910;DHT22;23741;49.446;8.754;2023-07-29T05:18:42;21.80;79.90
37910;DHT22;23741;49.446;8.754;2023-07-29T05:20:44;21.80;80.00
37910;DHT22;23741;49.446;8.754;2023-07-29T05:22:46;21.80;80.10
37910;DHT22;23741;49.446;8.754;2023-07-29T05:24:48;21.80;80.30
37910;DHT22;23741;49.446;8.754;2023-07-29T05:26:50;21.70;80.40
37910;DHT22;23741;49.446;8.754;2023-07-29T05:28:51;21.80;80.60
37910;DHT22;23741;49.446;8.754;2023-07-29T05:30:53;21.70;80.60
37910;DHT22;23741;49.446;8.754;2023-07-29T05:32:55;21.80;80.70
37910;DHT22;23741;49.446;8.754;2023-07-29T05:34:57;21.70;80.60
37910;DHT22;23741;49.446;8.754;2023-07-29T05:36:59;21.70;80.70
37910;DHT22;23741;49.446;8.754;2023-07-29T05:39:00;21.80;80.80
37910;DHT22;23741;49.446;8.754;2023-07-29T05:41:02;21.80;80.80
37910;DHT22;23741;49.446;8.754;2023-07-29T05:43:04;21.80;80.80
37910;DHT22;23741;49.446;8.754;2023-07-29T05:45:07;21.80;80.80
37910;DHT22;23741;49.446;8.754;2023-07-29T05:47:09;21.80;80.80
37910;DHT22;23741;49.446;8.754;2023-07-29T05:49:11;21.80;80.80
37910;DHT22;23741;49.446;8.754;2023-07-29T05:51:15;21.80;80.90
37910;DHT22;23741;49.446;8.754;2023-07-29T05:53:17;21.90;81.00
37910;DHT22;23741;49.446;8.754;2023-07-29T05:55:22;21.80;80.90
37910;DHT22;23741;49.446;8.754;2023-07-29T05:57:27;21.80;81.10
37910;DHT22;23741;49.446;8.754;2023-07-29T05:59:29;21.90;81.10
37910;DHT22;23741;49.446;8.754;2023-07-29T06:01:31;21.80;81.00
37910;DHT22;23741;49.446;8.754;2023-07-29T06:03:33;21.80;81.20
37910;DHT22;23741;49.446;8.754;2023-07-29T06:05:35;21.80;81.10
37910;DHT22;23741;49.446;8.754;2023-07-29T06:07:37;21.80;81.10
37910;DHT22;23741;49.446;8.754;2023-07-29T06:09:39;21.80;81.20
37910;DHT22;23741;49.446;8.754;2023-07-29T06:11:41;21.80;81.20
37910;DHT22;23741;49.446;8.754;2023-07-29T06:13:43;21.80;81.20
37910;DHT22;23741;49.446;8.754;2023-07-29T06:15:45;21.80;81.20
37910;DHT22;23741;49.446;8.754;2023-07-29T06:17:47;21.90;81.30
37910;DHT22;23741;49.446;8.754;2023-07-29T06:19:49;21.80;81.30
37910;DHT22;23741;49.446;8.754;2023-07-29T06:21:51;21.90;81.40
37910;DHT22;23741;49.446;8.754;2023-07-29T06:23:56;21.80;81.40
37910;DHT22;23741;49.446;8.754;2023-07-29T06:25:58;21.90;81.50
37910;DHT22;23741;49.446;8.754;2023-07-29T06:28:01;21.90;81.50
37910;DHT22;23741;49.446;8.754;2023-07-29T06:30:04;21.90;81.50
37910;DHT22;23741;49.446;8.754;2023-07-29T06:32:06;21.90;81.60
37910;DHT22;23741;49.446;8.754;2023-07-29T06:34:08;21.90;81.50
37910;DHT22;23741;49.446;8.754;2023-07-29T06:36:10;22.00;81.70
37910;DHT22;23741;49.446;8.754;2023-07-29T06:38:12;22.00;81.80
37910;DHT22;23741;49.446;8.754;2023-07-29T06:40:13;21.90;81.90
37910;DHT22;23741;49.446;8.754;2023-07-29T06:42:15;22.00;82.00
37910;DHT22;23741;49.446;8.754;2023-07-29T06:44:17;22.00;81.90
37910;DHT22;23741;49.446;8.754;2023-07-29T06:46:19;22.00;82.10
37910;DHT22;23741;49.446;8.754;2023-07-29T06:48:21;22.00;82.10
37910;DHT22;23741;49.446;8.754;2023-07-29T06:50:22;22.00;82.10
37910;DHT22;23741;49.446;8.754;2023-07-29T06:52:24;22.00;82.10
37910;DHT22;23741;49.446;8.754;2023-07-29T06:54:26;22.00;82.20
37910;DHT22;23741;49.446;8.754;2023-07-29T06:56:28;22.00;82.10
37910;DHT22;23741;49.446;8.754;2023-07-29T06:58:30;22.00;82.20
37910;DHT22;23741;49.446;8.754;2023-07-29T07:00:32;22.00;82.10
37910;DHT22;23741;49.446;8.754;2023-07-29T07:02:33;22.00;82.10
37910;DHT22;23741;49.446;8.754;2023-07-29T07:04:35;22.10;82.30
37910;DHT22;23741;49.446;8.754;2023-07-29T07:06:37;22.00;82.20
37910;DHT22;23741;49.446;8.754;2023-07-29T07:08:39;22.00;82.40
37910;DHT22;23741;49.446;8.754;2023-07-29T07:10:42;22.10;82.50
37910;DHT22;23741;49.446;8.754;2023-07-29T07:12:44;22.00;82.40
37910;DHT22;23741;49.446;8.754;2023-07-29T07:14:46;22.00;82.50
37910;DHT22;23741;49.446;8.754;2023-07-29T07:16:48;22.00;82.50
37910;DHT22;23741;49.446;8.754;2023-07-29T07:18:50;22.00;82.60
37910;DHT22;23741;49.446;8.754;2023-07-29T07:20:52;22.00;82.60
37910;DHT22;23741;49.446;8.754;2023-07-29T07:22:53;22.10;82.70
37910;DHT22;23741;49.446;8.754;2023-07-29T07:24:55;22.00;83.50
37910;DHT22;23741;49.446;8.754;2023-07-29T07:26:57;22.10;82.90
37910;DHT22;23741;49.446;8.754;2023-07-29T07:28:59;22.10;82.80
37910;DHT22;23741;49.446;8.754;2023-07-29T07:31:01;22.10;82.90
37910;DHT22;23741;49.446;8.754;2023-07-29T07:33:03;22.10;82.90
37910;DHT22;23741;49.446;8.754;2023-07-29T07:35:05;22.10;82.90
37910;DHT22;23741;49.446;8.754;2023-07-29T07:37:07;22.10;83.00
37910;DHT22;23741;49.446;8.754;2023-07-29T07:39:09;22.10;83.10
37910;DHT22;23741;49.446;8.754;2023-07-29T07:41:10;22.20;83.30
37910;DHT22;23741;49.446;8.754;2023-07-29T07:43:12;22.20;83.40
37910;DHT22;23741;49.446;8.754;2023-07-29T07:45:14;22.10;83.20
37910;DHT22;23741;49.446;8.754;2023-07-29T07:47:16;22.20;83.60
37910;DHT22;23741;49.446;8.754;2023-07-29T07:49:17;22.20;83.90
37910;DHT22;23741;49.446;8.754;2023-07-29T07:51:19;22.30;83.80
37910;DHT22;23741;49.446;8.754;2023-07-29T07:53:21;22.20;83.80
37910;DHT22;23741;49.446;8.754;2023-07-29T07:55:23;22.30;83.80
37910;DHT22;23741;49.446;8.754;2023-07-29T07:57:25;22.40;83.80
37910;DHT22;23741;49.446;8.754;2023-07-29T07:59:26;22.40;83.60
37910;DHT22;23741;49.446;8.754;2023-07-29T08:01:37;22.40;83.70
37910;DHT22;23741;49.446;8.754;2023-07-29T08:03:39;22.40;83.40
37910;DHT22;23741;49.446;8.754;2023-07-29T08:05:41;22.50;83.70
37910;DHT22;23741;49.446;8.754;2023-07-29T08:07:43;22.50;83.70
37910;DHT22;23741;49.446;8.754;2023-07-29T08:09:45;22.50;83.40
37910;DHT22;23741;49.446;8.754;2023-07-29T08:11:47;22.60;83.50
37910;DHT22;23741;49.446;8.754;2023-07-29T08:13:49;22.60;83.40
37910;DHT22;23741;49.446;8.754;2023-07-29T08:15:52;22.70;83.40
37910;DHT22;23741;49.446;8.754;2023-07-29T08:17:54;22.70;83.10
37910;DHT22;23741;49.446;8.754;2023-07-29T08:19:56;22.70;82.90
37910;DHT22;23741;49.446;8.754;2023-07-29T08:21:58;22.70;82.80
37910;DHT22;23741;49.446;8.754;2023-07-29T08:24:00;22.70;82.60
37910;DHT22;23741;49.446;8.754;2023-07-29T08:26:04;22.70;82.40
37910;DHT22;23741;49.446;8.754;2023-07-29T08:28:07;22.70;82.40
37910;DHT22;23741;49.446;8.754;2023-07-29T08:30:09;22.70;82.30
37910;DHT22;23741;49.446;8.754;2023-07-29T08:32:11;22.70;82.30
37910;DHT22;23741;49.446;8.754;2023-07-29T08:34:12;22.70;82.20
37910;DHT22;23741;49.446;8.754;2023-07-29T08:36:14;22.70;82.20
37910;DHT22;23741;49.446;8.754;2023-07-29T08:38:16;22.70;82.30
37910;DHT22;23741;49.446;8.754;2023-07-29T08:40:19;22.70;82.30
37910;DHT22;23741;49.446;8.754;2023-07-29T08:42:21;22.70;82.60
37910;DHT22;23741;49.446;8.754;2023-07-29T08:44:26;22.80;82.90
37910;DHT22;23741;49.446;8.754;2023-07-29T08:46:28;22.80;82.80
37910;DHT22;23741;49.446;8.754;2023-07-29T08:48:41;22.80;82.50
37910;DHT22;23741;49.446;8.754;2023-07-29T08:50:44;22.80;82.70
37910;DHT22;23741;49.446;8.754;2023-07-29T08:52:47;22.80;82.40
37910;DHT22;23741;49.446;8.754;2023-07-29T08:54:50;22.80;82.40
37910;DHT22;23741;49.446;8.754;2023-07-29T08:56:54;22.80;82.40
37910;DHT22;23741;49.446;8.754;2023-07-29T08:58:56;22.80;82.30
37910;DHT22;23741;49.446;8.754;2023-07-29T09:00:58;22.80;82.30
37910;DHT22;23741;49.446;8.754;2023-07-29T09:02:59;22.80;82.50
37910;DHT22;23741;49.446;8.754;2023-07-29T09:05:08;22.80;82.40
37910;DHT22;23741;49.446;8.754;2023-07-29T09:07:10;22.80;82.50
37910;DHT22;23741;49.446;8.754;2023-07-29T09:09:12;22.80;82.60
37910;DHT22;23741;49.446;8.754;2023-07-29T09:11:14;22.90;82.40
37910;DHT22;23741;49.446;8.754;2023-07-29T09:13:19;22.80;82.20
37910;DHT22;23741;49.446;8.754;2023-07-29T09:15:28;22.90;82.40
37910;DHT22;23741;49.446;8.754;2023-07-29T09:17:33;22.90;81.90
37910;DHT22;23741;49.446;8.754;2023-07-29T09:19:35;22.90;82.20
37910;DHT22;23741;49.446;8.754;2023-07-29T09:21:40;22.90;82.20
37910;DHT22;23741;49.446;8.754;2023-07-29T09:23:43;22.90;82.20
37910;DHT22;23741;49.446;8.754;2023-07-29T09:25:47;22.90;82.20
37910;DHT22;23741;49.446;8.754;2023-07-29T09:27:49;22.90;82.30
37910;DHT22;23741;49.446;8.754;2023-07-29T09:29:52;22.90;82.10
37910;DHT22;23741;49.446;8.754;2023-07-29T09:31:59;22.90;82.10
37910;DHT22;23741;49.446;8.754;2023-07-29T09:34:17;23.00;82.20
37910;DHT22;23741;49.446;8.754;2023-07-29T09:36:21;23.00;82.10
37910;DHT22;23741;49.446;8.754;2023-07-29T09:38:29;23.00;82.40
37910;DHT22;23741;49.446;8.754;2023-07-29T09:40:38;23.00;83.10
37910;DHT22;23741;49.446;8.754;2023-07-29T09:44:52;23.00;82.90
37910;DHT22;23741;49.446;8.754;2023-07-29T09:46:55;23.10;82.80
37910;DHT22;23741;49.446;8.754;2023-07-29T09:48:57;23.10;82.70
37910;DHT22;23741;49.446;8.754;2023-07-29T09:50:59;23.20;82.50
37910;DHT22;23741;49.446;8.754;2023-07-29T09:53:02;23.20;82.60
37910;DHT22;23741;49.446;8.754;2023-07-29T09:55:05;23.20;82.70
37910;DHT22;23741;49.446;8.754;2023-07-29T09:57:07;23.20;83.70
37910;DHT22;23741;49.446;8.754;2023-07-29T09:59:10;23.30;83.70
37910;DHT22;23741;49.446;8.754;2023-07-29T10:01:13;23.30;83.40
37910;DHT22;23741;49.446;8.754;2023-07-29T10:03:15;23.30;83.20
37910;DHT22;23741;49.446;8.754;2023-07-29T10:05:18;23.40;83.20
37910;DHT22;23741;49.446;8.754;2023-07-29T10:07:20;23.40;83.20
37910;DHT22;23741;49.446;8.754;2023-07-29T10:09:23;23.50;83.20
37910;DHT22;23741;49.446;8.754;2023-07-29T10:11:25;23.50;83.80
37910;DHT22;23741;49.446;8.754;2023-07-29T10:13:27;23.60;83.10
37910;DHT22;23741;49.446;8.754;2023-07-29T10:15:29;23.60;82.70
37910;DHT22;23741;49.446;8.754;2023-07-29T10:17:35;23.70;83.10
37910;DHT22;23741;49.446;8.754;2023-07-29T10:19:38;23.70;83.20
37910;DHT22;23741;49.446;8.754;2023-07-29T10:21:41;23.70;83.00
37910;DHT22;23741;49.446;8.754;2023-07-29T10:23:47;23.80;83.10
37910;DHT22;23741;49.446;8.754;2023-07-29T10:26:05;23.80;82.80
37910;DHT22;23741;49.446;8.754;2023-07-29T10:28:08;23.90;81.70
37910;DHT22;23741;49.446;8.754;2023-07-29T10:30:13;23.90;81.50
37910;DHT22;23741;49.446;8.754;2023-07-29T10:32:15;24.00;81.30
37910;DHT22;23741;49.446;8.754;2023-07-29T10:34:17;24.00;81.10
37910;DHT22;23741;49.446;8.754;2023-07-29T10:36:20;24.00;80.70
37910;DHT22;23741;49.446;8.754;2023-07-29T10:38:24;24.10;80.90
37910;DHT22;23741;49.446;8.754;2023-07-29T10:40:26;24.10;80.40
37910;DHT22;23741;49.446;8.754;2023-07-29T10:42:28;24.20;80.40
37910;DHT22;23741;49.446;8.754;2023-07-29T10:46:41;24.30;79.50
37910;DHT22;23741;49.446;8.754;2023-07-29T10:51:21;24.40;80.50
37910;DHT22;23741;49.446;8.754;2023-07-29T10:53:29;24.50;79.80
37910;DHT22;23741;49.446;8.754;2023-07-29T10:55:33;24.50;78.80
37910;DHT22;23741;49.446;8.754;2023-07-29T10:57:38;24.60;78.80
37910;DHT22;23741;49.446;8.754;2023-07-29T10:59:54;24.60;79.30
37910;DHT22;23741;49.446;8.754;2023-07-29T11:02:01;24.70;78.20
37910;DHT22;23741;49.446;8.754;2023-07-29T11:06:25;24.90;76.50
37910;DHT22;23741;49.446;8.754;2023-07-29T11:08:29;24.90;76.70
37910;DHT22;23741;49.446;8.754;2023-07-29T11:10:42;25.00;76.00
37910;DHT22;23741;49.446;8.754;2023-07-29T11:12:50;25.00;74.10
37910;DHT22;23741;49.446;8.754;2023-07-29T11:14:53;25.00;74.70
37910;DHT22;23741;49.446;8.754;2023-07-29T11:16:55;25.00;75.00
37910;DHT22;23741;49.446;8.754;2023-07-29T11:18:59;25.10;74.70
37910;DHT22;23741;49.446;8.754;2023-07-29T11:21:03;25.10;74.40
37910;DHT22;23741;49.446;8.754;2023-07-29T11:23:05;25.10;74.40
37910;DHT22;23741;49.446;8.754;2023-07-29T11:25:09;25.20;74.70
37910;DHT22;23741;49.446;8.754;2023-07-29T11:27:12;25.20;74.10
37910;DHT22;23741;49.446;8.754;2023-07-29T11:29:16;25.20;73.80
37910;DHT22;23741;49.446;8.754;2023-07-29T11:31:17;25.30;74.00
37910;DHT22;23741;49.446;8.754;2023-07-29T11:33:24;25.30;73.90
37910;DHT22;23741;49.446;8.754;2023-07-29T11:35:26;25.40;73.40
37910;DHT22;23741;49.446;8.754;2023-07-29T11:37:29;25.40;73.50
37910;DHT22;23741;49.446;8.754;2023-07-29T11:39:30;25.40;73.10
37910;DHT22;23741;49.446;8.754;2023-07-29T11:41:33;25.40;72.50
37910;DHT22;23741;49.446;8.754;2023-07-29T11:43:35;25.50;72.70
37910;DHT22;23741;49.446;8.754;2023-07-29T11:45:40;25.50;72.10
37910;DHT22;23741;49.446;8.754;2023-07-29T11:47:52;25.50;72.00
37910;DHT22;23741;49.446;8.754;2023-07-29T11:49:57;25.50;71.80
37910;DHT22;23741;49.446;8.754;2023-07-29T11:51:59;25.50;71.50
37910;DHT22;23741;49.446;8.754;2023-07-29T11:54:01;25.60;72.10
37910;DHT22;23741;49.446;8.754;2023-07-29T11:56:03;25.60;71.90
37910;DHT22;23741;49.446;8.754;2023-07-29T11:58:05;25.60;71.70
37910;DHT22;23741;49.446;8.754;2023-07-29T12:00:09;25.70;71.70
37910;DHT22;23741;49.446;8.754;2023-07-29T12:02:16;25.70;71.40
37910;DHT22;23741;49.446;8.754;2023-07-29T12:04:19;25.80;71.10
37910;DHT22;23741;49.446;8.754;2023-07-29T12:06:22;25.90;70.50
37910;DHT22;23741;49.446;8.754;2023-07-29T12:08:26;25.90;69.80
37910;DHT22;23741;49.446;8.754;2023-07-29T12:10:28;26.00;69.00
37910;DHT22;23741;49.446;8.754;2023-07-29T12:12:30;26.10;68.60
37910;DHT22;23741;49.446;8.754;2023-07-29T12:14:33;26.20;67.80
37910;DHT22;23741;49.446;8.754;2023-07-29T12:16:42;26.30;67.50
37910;DHT22;23741;49.446;8.754;2023-07-29T12:18:44;26.40;64.20
37910;DHT22;23741;49.446;8.754;2023-07-29T12:20:46;26.50;66.30
37910;DHT22;23741;49.446;8.754;2023-07-29T12:22:56;26.60;65.20
37910;DHT22;23741;49.446;8.754;2023-07-29T12:24:58;26.70;65.00
37910;DHT22;23741;49.446;8.754;2023-07-29T12:27:00;26.70;64.50
37910;DHT22;23741;49.446;8.754;2023-07-29T12:29:12;26.90;64.80
37910;DHT22;23741;49.446;8.754;2023-07-29T12:31:14;26.90;62.30
37910;DHT22;23741;49.446;8.754;2023-07-29T12:33:35;26.90;64.00
37910;DHT22;23741;49.446;8.754;2023-07-29T12:35:38;27.00;63.10
37910;DHT22;23741;49.446;8.754;2023-07-29T12:37:40;27.00;63.70
37910;DHT22;23741;49.446;8.754;2023-07-29T12:39:45;27.20;64.10
37910;DHT22;23741;49.446;8.754;2023-07-29T12:41:48;27.20;63.40
37910;DHT22;23741;49.446;8.754;2023-07-29T12:43:50;27.30;62.90
37910;DHT22;23741;49.446;8.754;2023-07-29T12:45:52;27.30;63.40
37910;DHT22;23741;49.446;8.754;2023-07-29T12:47:56;27.40;63.10
37910;DHT22;23741;49.446;8.754;2023-07-29T12:49:58;27.50;62.70
37910;DHT22;23741;49.446;8.754;2023-07-29T12:52:00;27.50;62.20
37910;DHT22;23741;49.446;8.754;2023-07-29T12:54:02;27.50;61.80
37910;DHT22;23741;49.446;8.754;2023-07-29T12:56:06;27.50;62.20
37910;DHT22;23741;49.446;8.754;2023-07-29T12:58:08;27.50;61.80
37910;DHT22;23741;49.446;8.754;2023-07-29T13:00:10;27.50;61.10
37910;DHT22;23741;49.446;8.754;2023-07-29T13:02:12;27.60;61.30
37910;DHT22;23741;49.446;8.754;2023-07-29T13:04:15;27.60;61.50
37910;DHT22;23741;49.446;8.754;2023-07-29T13:06:17;27.50;60.20
37910;DHT22;23741;49.446;8.754;2023-07-29T13:08:19;27.50;60.80
37910;DHT22;23741;49.446;8.754;2023-07-29T13:10:21;27.50;60.70